createdAt,value
2023-04-08T00:00:22.215Z,67
2023-04-08T00:00:54.857Z,68
2023-04-08T00:01:25.892Z,67
2023-04-08T00:01:58.911Z,68
2023-04-08T00:02:30.202Z,68
2023-04-08T00:03:02.821Z,68
2023-04-08T00:03:33.934Z,68
2023-04-08T00:04:06.778Z,68
2023-04-08T00:04:38.080Z,67
2023-04-08T00:05:10.755Z,67
2023-04-08T00:05:41.805Z,67
2023-04-08T00:06:14.692Z,67
2023-04-08T00:06:45.757Z,67
2023-04-08T00:07:18.403Z,67
2023-04-08T00:07:49.693Z,67
2023-04-08T00:08:22.548Z,67
2023-04-08T00:08:53.700Z,68
2023-04-08T00:09:26.347Z,68
2023-04-08T00:09:57.563Z,67
2023-04-08T00:10:30.690Z,67
2023-04-08T00:11:01.619Z,67
2023-04-08T00:11:34.423Z,67
2023-04-08T00:12:05.472Z,68
2023-04-08T00:12:38.286Z,67
2023-04-08T00:13:09.618Z,67
2023-04-08T00:13:42.253Z,67
2023-04-08T00:14:13.621Z,68
2023-04-08T00:14:46.304Z,67
2023-04-08T00:15:17.528Z,67
2023-04-08T00:15:50.246Z,67
2023-04-08T00:16:21.332Z,67
2023-04-08T00:16:54.101Z,67
2023-04-08T00:17:25.374Z,67
2023-04-08T00:17:57.995Z,67
2023-04-08T00:18:29.169Z,67
2023-04-08T00:19:02.154Z,67
2023-04-08T00:19:35.121Z,67
2023-04-08T00:20:06.053Z,67
2023-04-08T00:20:37.093Z,67
2023-04-08T00:21:10.047Z,67
2023-04-08T00:21:41.275Z,67
2023-04-08T00:22:13.900Z,67
2023-04-08T00:22:44.967Z,67
2023-04-08T00:23:18.023Z,67
2023-04-08T00:23:49.071Z,67
2023-04-08T00:24:21.829Z,67
2023-04-08T00:24:52.917Z,68
2023-04-08T00:25:26.037Z,68
2023-04-08T00:25:56.998Z,68
2023-04-08T00:26:29.717Z,68
2023-04-08T00:27:00.907Z,68
2023-04-08T00:27:34.250Z,68
2023-04-08T00:28:04.879Z,68
2023-04-08T00:28:37.633Z,68
2023-04-08T00:29:08.751Z,68
2023-04-08T00:29:41.724Z,68
2023-04-08T00:30:13.083Z,68
2023-04-08T00:30:45.559Z,68
2023-04-08T00:31:16.746Z,68
2023-04-08T00:31:49.656Z,68
2023-04-08T00:32:20.930Z,69
2023-04-08T00:32:53.493Z,68
2023-04-08T00:33:24.577Z,68
2023-04-08T00:33:57.510Z,69
2023-04-08T00:34:28.642Z,69
2023-04-08T00:35:01.650Z,69
2023-04-08T00:35:32.505Z,69
2023-04-08T00:36:05.486Z,69
2023-04-08T00:36:36.752Z,70
2023-04-08T00:37:09.186Z,70
2023-04-08T00:37:40.619Z,70
2023-04-08T00:38:13.452Z,70
2023-04-08T00:38:44.461Z,70
2023-04-08T00:39:17.134Z,70
2023-04-08T00:39:48.301Z,70
2023-04-08T00:40:21.359Z,70
2023-04-08T00:40:52.503Z,70
2023-04-08T00:41:24.973Z,71
2023-04-08T00:41:56.216Z,71
2023-04-08T00:42:29.226Z,71
2023-04-08T00:43:00.291Z,71
2023-04-08T00:43:33.119Z,71
2023-04-08T00:44:04.121Z,71
2023-04-08T00:44:37.065Z,71
2023-04-08T00:45:08.274Z,71
2023-04-08T00:45:41.130Z,71
2023-04-08T00:46:12.109Z,71
2023-04-08T00:46:44.950Z,72
2023-04-08T00:47:16.059Z,72
2023-04-08T00:47:48.719Z,72
2023-04-08T00:48:19.952Z,72
2023-04-08T00:48:52.972Z,72
2023-04-08T00:49:23.991Z,72
2023-04-08T00:49:56.642Z,72
2023-04-08T00:50:27.904Z,72
2023-04-08T00:51:00.840Z,73
2023-04-08T00:51:31.892Z,73
2023-04-08T00:52:04.631Z,73
2023-04-08T00:52:35.813Z,73
2023-04-08T00:53:08.666Z,73
2023-04-08T00:53:39.854Z,73
2023-04-08T00:54:12.549Z,74
2023-04-08T00:54:43.643Z,74
2023-04-08T00:55:16.506Z,74
2023-04-08T00:55:47.741Z,74
2023-04-08T00:56:20.442Z,74
2023-04-08T00:56:51.553Z,74
2023-04-08T00:57:24.471Z,74
2023-04-08T00:57:55.593Z,75
2023-04-08T00:58:28.526Z,75
2023-04-08T00:58:59.468Z,75
2023-04-08T00:59:32.293Z,75
2023-04-08T01:00:03.631Z,75
2023-04-08T01:00:36.443Z,75
2023-04-08T01:01:07.402Z,75
2023-04-08T01:01:40.594Z,76
2023-04-08T01:02:11.681Z,76
2023-04-08T01:02:44.483Z,76
2023-04-08T01:03:15.365Z,76
2023-04-08T01:03:48.287Z,76
2023-04-08T01:04:19.486Z,76
2023-04-08T01:04:52.287Z,76
2023-04-08T01:05:23.207Z,76
2023-04-08T01:05:56.004Z,76
2023-04-08T01:06:27.266Z,76
2023-04-08T01:07:00.241Z,77
2023-04-08T01:07:31.167Z,77
2023-04-08T01:08:04.105Z,77
2023-04-08T01:08:35.637Z,77
2023-04-08T01:09:08.103Z,77
2023-04-08T01:09:39.043Z,77
2023-04-08T01:10:11.877Z,77
2023-04-08T01:10:43.042Z,77
2023-04-08T01:11:15.987Z,77
2023-04-08T01:11:46.948Z,77
2023-04-08T01:12:19.847Z,78
2023-04-08T01:12:51.066Z,78
2023-04-08T01:13:23.896Z,78
2023-04-08T01:13:55.005Z,78
2023-04-08T01:14:27.918Z,78
2023-04-08T01:14:58.911Z,78
2023-04-08T01:15:31.954Z,78
2023-04-08T01:16:02.799Z,78
2023-04-08T01:16:37.381Z,78
2023-04-08T01:17:06.820Z,78
2023-04-08T01:17:39.690Z,78
2023-04-08T01:18:10.924Z,79
2023-04-08T01:18:43.614Z,78
2023-04-08T01:19:14.682Z,79
2023-04-08T01:19:47.643Z,79
2023-04-08T01:20:18.548Z,79
2023-04-08T01:20:51.562Z,79
2023-04-08T01:21:22.603Z,79
2023-04-08T01:21:55.507Z,79
2023-04-08T01:22:26.634Z,79
2023-04-08T01:22:59.283Z,79
2023-04-08T01:23:30.737Z,79
2023-04-08T01:24:03.426Z,79
2023-04-08T01:24:34.349Z,79
2023-04-08T01:25:07.331Z,80
2023-04-08T01:25:38.486Z,80
2023-04-08T01:26:11.423Z,80
2023-04-08T01:26:42.257Z,80
2023-04-08T01:27:15.182Z,80
2023-04-08T01:27:46.292Z,80
2023-04-08T01:28:19.247Z,80
2023-04-08T01:28:50.658Z,80
2023-04-08T01:29:23.081Z,80
2023-04-08T01:29:54.370Z,80
2023-04-08T01:30:27.271Z,80
2023-04-08T01:30:58.157Z,80
2023-04-08T01:31:31.194Z,80
2023-04-08T01:32:02.156Z,80
2023-04-08T01:32:35.162Z,80
2023-04-08T01:33:06.207Z,80
2023-04-08T01:33:39.042Z,81
2023-04-08T01:34:10.095Z,81
2023-04-08T01:34:42.965Z,81
2023-04-08T01:35:14.077Z,81
2023-04-08T01:35:46.892Z,81
2023-04-08T01:36:17.996Z,81
2023-04-08T01:36:51.248Z,81
2023-04-08T01:37:21.977Z,81
2023-04-08T01:37:54.709Z,81
2023-04-08T01:38:25.876Z,81
2023-04-08T01:38:58.891Z,81
2023-04-08T01:39:29.963Z,82
2023-04-08T01:40:02.658Z,82
2023-04-08T01:40:33.765Z,82
2023-04-08T01:41:06.589Z,82
2023-04-08T01:41:37.854Z,82
2023-04-08T01:42:10.786Z,82
2023-04-08T01:42:41.713Z,82
2023-04-08T01:43:14.613Z,82
2023-04-08T01:43:45.702Z,82
2023-04-08T01:44:18.492Z,83
2023-04-08T01:44:49.585Z,83
2023-04-08T01:45:22.497Z,83
2023-04-08T01:45:53.774Z,83
2023-04-08T01:46:26.376Z,83
2023-04-08T01:46:57.515Z,83
2023-04-08T01:47:30.521Z,83
2023-04-08T01:48:01.679Z,83
2023-04-08T01:48:34.256Z,83
2023-04-08T01:49:05.413Z,83
2023-04-08T01:49:38.259Z,83
2023-04-08T01:50:09.489Z,83
2023-04-08T01:50:42.178Z,83
2023-04-08T01:51:13.298Z,83
2023-04-08T01:51:46.252Z,84
2023-04-08T01:52:17.374Z,84
2023-04-08T01:52:50.161Z,84
2023-04-08T01:53:21.410Z,84
2023-04-08T01:53:54.254Z,84
2023-04-08T01:54:25.274Z,84
2023-04-08T01:54:58.050Z,84
2023-04-08T01:55:29.145Z,84
2023-04-08T01:56:02.073Z,84
2023-04-08T01:56:33.167Z,84
2023-04-08T01:57:05.903Z,84
2023-04-08T01:57:37.106Z,84
2023-04-08T01:58:10.063Z,84
2023-04-08T01:58:41.229Z,84
2023-04-08T01:59:13.821Z,84
2023-04-08T01:59:44.967Z,84
2023-04-08T02:00:18.208Z,84
2023-04-08T02:00:49.122Z,84
2023-04-08T02:01:21.767Z,84
2023-04-08T02:01:53.301Z,84
2023-04-08T02:02:26.401Z,84
2023-04-08T02:02:57.061Z,84
2023-04-08T02:03:29.778Z,84
2023-04-08T02:04:01.053Z,84
2023-04-08T02:04:33.785Z,84
2023-04-08T02:05:04.832Z,84
2023-04-08T02:05:37.749Z,84
2023-04-08T02:06:08.682Z,84
2023-04-08T02:06:41.890Z,84
2023-04-08T02:07:12.724Z,84
2023-04-08T02:07:45.370Z,84
2023-04-08T02:08:16.556Z,85
2023-04-08T02:08:49.766Z,85
2023-04-08T02:09:20.854Z,85
2023-04-08T02:09:53.250Z,85
2023-04-08T02:10:24.503Z,85
2023-04-08T02:10:57.417Z,85
2023-04-08T02:11:28.552Z,85
2023-04-08T02:12:01.314Z,85
2023-04-08T02:12:32.391Z,85
2023-04-08T02:13:05.618Z,85
2023-04-08T02:13:36.594Z,85
2023-04-08T02:14:09.122Z,85
2023-04-08T02:14:40.336Z,85
2023-04-08T02:15:13.296Z,85
2023-04-08T02:15:44.375Z,85
2023-04-08T02:16:17.031Z,85
2023-04-08T02:16:48.386Z,85
2023-04-08T02:17:21.231Z,85
2023-04-08T02:17:52.366Z,85
2023-04-08T02:18:26.482Z,85
2023-04-08T02:18:56.086Z,85
2023-04-08T02:19:29.115Z,85
2023-04-08T02:20:00.265Z,85
2023-04-08T02:20:33.173Z,85
2023-04-08T02:21:04.048Z,85
2023-04-08T02:21:36.905Z,85
2023-04-08T02:22:08.156Z,85
2023-04-08T02:22:40.997Z,85
2023-04-08T02:23:11.954Z,85
2023-04-08T02:23:45.057Z,86
2023-04-08T02:24:15.994Z,86
2023-04-08T02:24:48.801Z,86
2023-04-08T02:25:19.940Z,86
2023-04-08T02:25:53.020Z,86
2023-04-08T02:26:23.955Z,86
2023-04-08T02:26:56.826Z,86
2023-04-08T02:27:27.813Z,86
2023-04-08T02:28:01.041Z,86
2023-04-08T02:28:31.785Z,86
2023-04-08T02:29:04.882Z,86
2023-04-08T02:29:35.676Z,86
2023-04-08T02:30:08.798Z,86
2023-04-08T02:30:39.726Z,86
2023-04-08T02:31:12.878Z,86
2023-04-08T02:31:43.585Z,86
2023-04-08T02:32:16.697Z,86
2023-04-08T02:32:47.681Z,86
2023-04-08T02:33:20.843Z,86
2023-04-08T02:33:51.484Z,86
2023-04-08T02:34:26.494Z,86
2023-04-08T02:34:55.552Z,86
2023-04-08T02:35:28.786Z,86
2023-04-08T02:35:59.382Z,86
2023-04-08T02:36:33.395Z,86
2023-04-08T02:37:03.444Z,86
2023-04-08T02:37:36.563Z,86
2023-04-08T02:38:07.282Z,87
2023-04-08T02:38:40.215Z,87
2023-04-08T02:39:11.377Z,87
2023-04-08T02:39:44.163Z,87
2023-04-08T02:40:15.176Z,87
2023-04-08T02:40:48.144Z,87
2023-04-08T02:41:19.242Z,87
2023-04-08T02:41:53.257Z,87
2023-04-08T02:42:23.097Z,87
2023-04-08T02:42:56.017Z,87
2023-04-08T02:43:27.174Z,87
2023-04-08T02:44:01.240Z,87
2023-04-08T02:44:31.246Z,87
2023-04-08T02:45:04.071Z,87
2023-04-08T02:45:35.229Z,87
2023-04-08T02:46:08.126Z,88
2023-04-08T02:46:38.902Z,88
2023-04-08T02:47:12.058Z,88
2023-04-08T02:47:43.019Z,88
2023-04-08T02:48:16.005Z,88
2023-04-08T02:48:46.898Z,88
2023-04-08T02:49:19.838Z,88
2023-04-08T02:49:50.977Z,88
2023-04-08T02:50:23.833Z,88
2023-04-08T02:50:55.026Z,88
2023-04-08T02:51:27.720Z,88
2023-04-08T02:51:58.825Z,88
2023-04-08T02:52:31.647Z,88
2023-04-08T02:53:02.702Z,88
2023-04-08T02:53:35.889Z,89
2023-04-08T02:54:06.842Z,88
2023-04-08T02:54:39.978Z,88
2023-04-08T02:55:10.789Z,88
2023-04-08T02:55:43.657Z,89
2023-04-08T02:56:14.626Z,89
2023-04-08T02:56:47.733Z,89
2023-04-08T02:57:18.625Z,89
2023-04-08T02:57:51.378Z,89
2023-04-08T02:58:22.497Z,89
2023-04-08T02:58:55.523Z,89
2023-04-08T02:59:26.557Z,89
2023-04-08T02:59:59.268Z,89
2023-04-08T03:00:30.751Z,90
2023-04-08T03:01:03.759Z,90
2023-04-08T03:01:34.600Z,90
2023-04-08T03:02:07.214Z,90
2023-04-08T03:02:38.512Z,90
2023-04-08T03:03:11.613Z,90
2023-04-08T03:03:42.632Z,90
2023-04-08T03:04:15.087Z,90
2023-04-08T03:04:46.351Z,90
2023-04-08T03:05:19.132Z,90
2023-04-08T03:05:50.329Z,90
2023-04-08T03:06:23.020Z,90
2023-04-08T03:06:54.100Z,90
2023-04-08T03:07:27.042Z,91
2023-04-08T03:07:58.172Z,91
2023-04-08T03:08:31.002Z,91
2023-04-08T03:09:02.023Z,91
2023-04-08T03:09:35.192Z,91
2023-04-08T03:10:06.140Z,91
2023-04-08T03:10:38.835Z,91
2023-04-08T03:11:09.957Z,91
2023-04-08T03:11:42.858Z,91
2023-04-08T03:12:14.004Z,91
2023-04-08T03:12:46.838Z,91
2023-04-08T03:13:17.882Z,91
2023-04-08T03:13:50.939Z,91
2023-04-08T03:14:21.942Z,91
2023-04-08T03:14:54.636Z,91
2023-04-08T03:15:25.877Z,91
2023-04-08T03:15:58.804Z,91
2023-04-08T03:16:29.865Z,91
2023-04-08T03:17:02.821Z,91
2023-04-08T03:17:33.752Z,91
2023-04-08T03:18:06.739Z,91
2023-04-08T03:18:37.730Z,91
2023-04-08T03:19:10.632Z,91
2023-04-08T03:19:41.731Z,91
2023-04-08T03:20:14.504Z,92
2023-04-08T03:20:45.649Z,92
2023-04-08T03:21:18.342Z,92
2023-04-08T03:21:49.480Z,92
2023-04-08T03:22:22.509Z,92
2023-04-08T03:22:53.539Z,92
2023-04-08T03:23:26.253Z,92
2023-04-08T03:23:57.390Z,92
2023-04-08T03:24:30.375Z,92
2023-04-08T03:25:01.694Z,92
2023-04-08T03:25:34.186Z,92
2023-04-08T03:26:05.352Z,92
2023-04-08T03:26:38.119Z,92
2023-04-08T03:27:09.556Z,92
2023-04-08T03:27:42.267Z,92
2023-04-08T03:28:13.170Z,92
2023-04-08T03:28:46.121Z,92
2023-04-08T03:29:17.262Z,92
2023-04-08T03:29:50.221Z,92
2023-04-08T03:30:21.463Z,92
2023-04-08T03:30:54.085Z,92
2023-04-08T03:31:25.209Z,92
2023-04-08T03:31:58.110Z,92
2023-04-08T03:32:29.000Z,92
2023-04-08T03:33:02.079Z,92
2023-04-08T03:33:33.097Z,92
2023-04-08T03:34:06.085Z,92
2023-04-08T03:34:36.981Z,92
2023-04-08T03:35:10.054Z,92
2023-04-08T03:35:41.134Z,92
2023-04-08T03:36:13.973Z,92
2023-04-08T03:36:44.849Z,92
2023-04-08T03:37:17.633Z,92
2023-04-08T03:37:48.906Z,92
2023-04-08T03:38:21.770Z,92
2023-04-08T03:38:52.745Z,92
2023-04-08T03:39:25.789Z,92
2023-04-08T03:39:56.765Z,92
2023-04-08T03:40:29.730Z,92
2023-04-08T03:41:00.874Z,92
2023-04-08T03:41:33.509Z,92
2023-04-08T03:42:04.823Z,92
2023-04-08T03:42:37.542Z,92
2023-04-08T03:43:08.555Z,92
2023-04-08T03:43:41.637Z,92
2023-04-08T03:44:12.702Z,92
2023-04-08T03:44:45.539Z,92
2023-04-08T03:45:16.570Z,92
2023-04-08T03:45:49.462Z,92
2023-04-08T03:46:20.637Z,92
2023-04-08T03:46:53.408Z,92
2023-04-08T03:47:24.452Z,92
2023-04-08T03:47:57.230Z,92
2023-04-08T03:48:28.410Z,92
2023-04-08T03:49:01.474Z,92
2023-04-08T03:49:32.302Z,92
2023-04-08T03:50:05.133Z,92
2023-04-08T03:50:36.333Z,92
2023-04-08T03:51:09.257Z,92
2023-04-08T03:51:40.305Z,92
2023-04-08T03:52:14.253Z,92
2023-04-08T03:52:44.258Z,92
2023-04-08T03:53:17.313Z,92
2023-04-08T03:53:48.398Z,92
2023-04-08T03:54:21.199Z,92
2023-04-08T03:54:52.150Z,92
2023-04-08T03:55:25.280Z,92
2023-04-08T03:55:56.183Z,92
2023-04-08T03:56:28.908Z,92
2023-04-08T03:57:00.097Z,92
2023-04-08T03:57:32.993Z,92
2023-04-08T03:58:04.104Z,92
2023-04-08T03:58:36.896Z,92
2023-04-08T03:59:07.963Z,92
2023-04-08T03:59:41.387Z,92
2023-04-08T04:00:13.337Z,92
2023-04-08T04:00:44.759Z,92
2023-04-08T04:01:15.862Z,92
2023-04-08T04:01:48.832Z,92
2023-04-08T04:02:20.033Z,92
2023-04-08T04:02:52.619Z,92
2023-04-08T04:03:23.881Z,92
2023-04-08T04:03:56.923Z,92
2023-04-08T04:04:27.961Z,92
2023-04-08T04:05:00.925Z,92
2023-04-08T04:05:31.691Z,92
2023-04-08T04:06:04.940Z,92
2023-04-08T04:06:35.710Z,92
2023-04-08T04:07:08.664Z,92
2023-04-08T04:07:39.662Z,92
2023-04-08T04:08:12.482Z,92
2023-04-08T04:08:43.757Z,92
2023-04-08T04:09:16.379Z,92
2023-04-08T04:09:47.478Z,92
2023-04-08T04:10:20.402Z,92
2023-04-08T04:10:51.592Z,92
2023-04-08T04:11:24.287Z,92
2023-04-08T04:11:55.442Z,92
2023-04-08T04:12:28.364Z,92
2023-04-08T04:12:59.433Z,92
2023-04-08T04:13:32.206Z,92
2023-04-08T04:14:03.316Z,92
2023-04-08T04:14:36.462Z,92
2023-04-08T04:15:07.640Z,92
2023-04-08T04:15:40.182Z,92
2023-04-08T04:16:11.444Z,92
2023-04-08T04:16:44.016Z,92
2023-04-08T04:17:15.240Z,92
2023-04-08T04:17:48.391Z,92
2023-04-08T04:18:19.134Z,92
2023-04-08T04:18:52.929Z,92
2023-04-08T04:19:23.177Z,92
2023-04-08T04:19:55.919Z,92
2023-04-08T04:20:27.177Z,92
2023-04-08T04:21:00.183Z,92
2023-04-08T04:21:31.363Z,92
2023-04-08T04:22:03.716Z,92
2023-04-08T04:22:34.912Z,92
2023-04-08T04:23:07.875Z,92
2023-04-08T04:23:38.983Z,92
2023-04-08T04:24:11.619Z,92
2023-04-08T04:24:42.813Z,92
2023-04-08T04:25:15.957Z,92
2023-04-08T04:25:46.885Z,92
2023-04-08T04:26:19.617Z,92
2023-04-08T04:26:50.839Z,92
2023-04-08T04:27:23.533Z,92
2023-04-08T04:27:54.779Z,92
2023-04-08T04:28:27.828Z,92
2023-04-08T04:28:58.847Z,92
2023-04-08T04:29:31.520Z,92
2023-04-08T04:30:02.817Z,92
2023-04-08T04:30:35.616Z,92
2023-04-08T04:31:06.555Z,92
2023-04-08T04:31:39.693Z,92
2023-04-08T04:32:10.727Z,92
2023-04-08T04:32:43.585Z,92
2023-04-08T04:33:14.473Z,92
2023-04-08T04:33:47.475Z,92
2023-04-08T04:34:18.528Z,92
2023-04-08T04:34:51.508Z,92
2023-04-08T04:35:22.356Z,92
2023-04-08T04:35:55.183Z,92
2023-04-08T04:36:26.417Z,92
2023-04-08T04:36:59.311Z,92
2023-04-08T04:37:30.373Z,92
2023-04-08T04:38:03.214Z,92
2023-04-08T04:38:34.279Z,92
2023-04-08T04:39:07.256Z,92
2023-04-08T04:39:38.217Z,92
2023-04-08T04:40:11.321Z,92
2023-04-08T04:40:42.218Z,92
2023-04-08T04:41:15.168Z,92
2023-04-08T04:41:46.093Z,92
2023-04-08T04:42:19.009Z,92
2023-04-08T04:42:50.168Z,92
2023-04-08T04:43:23.169Z,92
2023-04-08T04:43:54.128Z,92
2023-04-08T04:44:26.938Z,92
2023-04-08T04:44:58.131Z,92
2023-04-08T04:45:31.221Z,92
2023-04-08T04:46:01.959Z,92
2023-04-08T04:46:34.950Z,92
2023-04-08T04:47:05.949Z,92
2023-04-08T04:47:38.958Z,92
2023-04-08T04:48:10.014Z,92
2023-04-08T04:48:43.037Z,92
2023-04-08T04:49:13.875Z,92
2023-04-08T04:49:46.677Z,92
2023-04-08T04:50:17.960Z,92
2023-04-08T04:50:50.893Z,92
2023-04-08T04:51:21.783Z,92
2023-04-08T04:51:54.719Z,92
2023-04-08T04:52:25.820Z,92
2023-04-08T04:52:59.551Z,92
2023-04-08T04:53:29.743Z,92
2023-04-08T04:54:02.641Z,92
2023-04-08T04:54:33.726Z,92
2023-04-08T04:55:06.482Z,92
2023-04-08T04:55:39.252Z,92
2023-04-08T04:56:10.631Z,91
2023-04-08T04:56:41.643Z,92
2023-04-08T04:57:14.365Z,92
2023-04-08T04:57:45.479Z,92
2023-04-08T04:58:18.507Z,92
2023-04-08T04:58:49.685Z,92
2023-04-08T04:59:22.503Z,92
2023-04-08T04:59:53.384Z,92
2023-04-08T05:00:27.050Z,92
2023-04-08T05:00:57.620Z,92
2023-04-08T05:01:30.360Z,92
2023-04-08T05:02:01.425Z,92
2023-04-08T05:02:34.632Z,92
2023-04-08T05:03:05.665Z,92
2023-04-08T05:03:38.118Z,92
2023-04-08T05:04:09.257Z,92
2023-04-08T05:04:42.209Z,92
2023-04-08T05:05:13.315Z,92
2023-04-08T05:05:46.925Z,92
2023-04-08T05:06:17.119Z,92
2023-04-08T05:06:50.102Z,92
2023-04-08T05:07:21.624Z,92
2023-04-08T05:07:54.028Z,92
2023-04-08T05:08:26.635Z,92
2023-04-08T05:08:58.098Z,92
2023-04-08T05:09:29.118Z,92
2023-04-08T05:10:02.007Z,92
2023-04-08T05:10:32.934Z,92
2023-04-08T05:11:05.901Z,92
2023-04-08T05:11:37.085Z,92
2023-04-08T05:12:10.647Z,92
2023-04-08T05:12:40.960Z,92
2023-04-08T05:13:13.874Z,92
2023-04-08T05:13:44.951Z,92
2023-04-08T05:14:17.658Z,92
2023-04-08T05:14:48.777Z,92
2023-04-08T05:15:21.796Z,92
2023-04-08T05:15:52.918Z,92
2023-04-08T05:16:25.635Z,92
2023-04-08T05:16:56.727Z,92
2023-04-08T05:17:29.651Z,92
2023-04-08T05:18:00.931Z,92
2023-04-08T05:18:33.445Z,92
2023-04-08T05:19:04.588Z,92
2023-04-08T05:19:37.550Z,92
2023-04-08T05:20:08.707Z,92
2023-04-08T05:20:41.601Z,92
2023-04-08T05:21:12.499Z,92
2023-04-08T05:21:45.453Z,92
2023-04-08T05:22:16.674Z,92
2023-04-08T05:22:49.254Z,92
2023-04-08T05:23:20.481Z,92
2023-04-08T05:23:53.337Z,92
2023-04-08T05:24:24.474Z,92
2023-04-08T05:24:57.204Z,92
2023-04-08T05:25:28.402Z,92
2023-04-08T05:26:01.417Z,92
2023-04-08T05:26:32.393Z,92
2023-04-08T05:27:05.164Z,92
2023-04-08T05:27:36.211Z,92
2023-04-08T05:28:09.166Z,92
2023-04-08T05:28:40.662Z,92
2023-04-08T05:29:13.026Z,92
2023-04-08T05:29:44.116Z,92
2023-04-08T05:30:17.280Z,92
2023-04-08T05:30:48.213Z,92
2023-04-08T05:31:21.435Z,92
2023-04-08T05:31:52.058Z,92
2023-04-08T05:32:24.902Z,92
2023-04-08T05:32:58.499Z,92
2023-04-08T05:33:29.213Z,92
2023-04-08T05:33:59.972Z,92
2023-04-08T05:34:33.077Z,92
2023-04-08T05:35:04.014Z,92
2023-04-08T05:35:37.172Z,92
2023-04-08T05:36:07.904Z,92
2023-04-08T05:36:41.060Z,92
2023-04-08T05:37:12.000Z,92
2023-04-08T05:37:45.155Z,92
2023-04-08T05:38:15.754Z,92
2023-04-08T05:38:49.253Z,92
2023-04-08T05:39:19.860Z,93
2023-04-08T05:39:52.955Z,93
2023-04-08T05:40:23.687Z,93
2023-04-08T05:40:56.508Z,93
2023-04-08T05:41:27.812Z,93
2023-04-08T05:42:00.870Z,93
2023-04-08T05:42:31.606Z,93
2023-04-08T05:43:04.520Z,93
2023-04-08T05:43:35.653Z,93
2023-04-08T05:44:08.534Z,93
2023-04-08T05:44:39.480Z,93
2023-04-08T05:45:12.497Z,93
2023-04-08T05:45:43.524Z,93
2023-04-08T05:46:17.427Z,93
2023-04-08T05:46:47.423Z,93
2023-04-08T05:47:20.383Z,93
2023-04-08T05:47:51.663Z,93
2023-04-08T05:48:24.379Z,93
2023-04-08T05:48:55.304Z,93
2023-04-08T05:49:28.335Z,93
2023-04-08T05:49:59.391Z,93
2023-04-08T05:50:35.132Z,93
2023-04-08T05:51:03.274Z,93
2023-04-08T05:51:36.559Z,93
2023-04-08T05:52:07.287Z,93
2023-04-08T05:52:40.130Z,94
2023-04-08T05:53:11.227Z,94
2023-04-08T05:53:44.280Z,94
2023-04-08T05:54:15.196Z,94
2023-04-08T05:54:48.145Z,94
2023-04-08T05:55:19.044Z,94
2023-04-08T05:55:52.023Z,94
2023-04-08T05:56:23.203Z,94
2023-04-08T05:56:55.936Z,94
2023-04-08T05:57:27.023Z,94
2023-04-08T05:57:59.912Z,94
2023-04-08T05:58:31.350Z,94
2023-04-08T05:59:04.062Z,94
2023-04-08T05:59:34.895Z,94
2023-04-08T06:00:08.151Z,94
2023-04-08T06:00:39.014Z,94
2023-04-08T06:01:11.892Z,94
2023-04-08T06:01:42.841Z,94
2023-04-08T06:02:15.827Z,95
2023-04-08T06:02:47.002Z,95
2023-04-08T06:03:21.317Z,95
2023-04-08T06:03:50.975Z,95
2023-04-08T06:04:23.799Z,95
2023-04-08T06:04:54.807Z,95
2023-04-08T06:05:27.967Z,95
2023-04-08T06:05:58.614Z,95
2023-04-08T06:06:31.703Z,95
2023-04-08T06:07:02.694Z,95
2023-04-08T06:07:36.660Z,95
2023-04-08T06:08:06.467Z,95
2023-04-08T06:08:39.390Z,95
2023-04-08T06:09:10.780Z,95
2023-04-08T06:09:45.279Z,95
2023-04-08T06:10:14.417Z,95
2023-04-08T06:10:47.323Z,95
2023-04-08T06:11:18.877Z,95
2023-04-08T06:11:51.526Z,95
2023-04-08T06:12:22.323Z,95
2023-04-08T06:12:55.210Z,95
2023-04-08T06:13:26.371Z,95
2023-04-08T06:13:59.652Z,95
2023-04-08T06:14:30.227Z,95
2023-04-08T06:15:03.235Z,96
2023-04-08T06:15:34.404Z,96
2023-04-08T06:16:07.385Z,96
2023-04-08T06:16:38.329Z,96
2023-04-08T06:17:11.148Z,96
2023-04-08T06:17:42.200Z,96
2023-04-08T06:18:15.394Z,96
2023-04-08T06:18:46.206Z,96
2023-04-08T06:19:18.933Z,96
2023-04-08T06:19:50.129Z,96
2023-04-08T06:20:23.245Z,96
2023-04-08T06:20:54.141Z,96
2023-04-08T06:21:26.811Z,96
2023-04-08T06:21:58.007Z,96
2023-04-08T06:22:31.184Z,96
2023-04-08T06:23:02.143Z,96
2023-04-08T06:23:35.546Z,96
2023-04-08T06:24:05.895Z,96
2023-04-08T06:24:38.818Z,96
2023-04-08T06:25:10.036Z,96
2023-04-08T06:25:42.597Z,96
2023-04-08T06:26:13.822Z,96
2023-04-08T06:26:46.902Z,96
2023-04-08T06:27:17.873Z,96
2023-04-08T06:27:50.789Z,96
2023-04-08T06:28:21.681Z,96
2023-04-08T06:28:54.594Z,96
2023-04-08T06:29:25.760Z,96
2023-04-08T06:29:58.530Z,96
2023-04-08T06:30:29.675Z,96
2023-04-08T06:31:02.522Z,96
2023-04-08T06:31:33.714Z,96
2023-04-08T06:32:06.410Z,96
2023-04-08T06:32:37.646Z,96
2023-04-08T06:33:10.559Z,96
2023-04-08T06:33:41.599Z,96
2023-04-08T06:34:14.192Z,96
2023-04-08T06:34:45.408Z,96
2023-04-08T06:35:18.381Z,96
2023-04-08T06:35:49.499Z,96
2023-04-08T06:36:22.281Z,96
2023-04-08T06:36:53.341Z,96
2023-04-08T06:37:26.275Z,96
2023-04-08T06:37:57.375Z,96
2023-04-08T06:38:30.323Z,96
2023-04-08T06:39:01.273Z,96
2023-04-08T06:39:34.171Z,96
2023-04-08T06:40:05.268Z,96
2023-04-08T06:40:38.011Z,96
2023-04-08T06:41:09.162Z,96
2023-04-08T06:41:43.182Z,96
2023-04-08T06:42:13.326Z,96
2023-04-08T06:42:47.529Z,96
2023-04-08T06:43:17.079Z,96
2023-04-08T06:43:49.964Z,96
2023-04-08T06:44:21.234Z,96
2023-04-08T06:44:54.015Z,96
2023-04-08T06:45:25.108Z,96
2023-04-08T06:45:57.947Z,96
2023-04-08T06:46:29.038Z,96
2023-04-08T06:47:01.973Z,96
2023-04-08T06:47:32.910Z,96
2023-04-08T06:48:05.770Z,96
2023-04-08T06:48:36.881Z,96
2023-04-08T06:49:09.817Z,96
2023-04-08T06:49:40.990Z,96
2023-04-08T06:50:14.534Z,96
2023-04-08T06:50:44.888Z,96
2023-04-08T06:51:17.748Z,96
2023-04-08T06:51:48.662Z,96
2023-04-08T06:52:21.678Z,96
2023-04-08T06:52:52.779Z,96
2023-04-08T06:53:25.892Z,96
2023-04-08T06:53:56.639Z,96
2023-04-08T06:54:29.481Z,96
2023-04-08T06:55:01.402Z,96
2023-04-08T06:55:33.494Z,96
2023-04-08T06:56:04.469Z,96
2023-04-08T06:56:37.424Z,96
2023-04-08T06:57:08.545Z,96
2023-04-08T06:57:41.531Z,96
2023-04-08T06:58:12.368Z,96
2023-04-08T06:58:45.326Z,96
2023-04-08T06:59:16.463Z,96
2023-04-08T06:59:49.250Z,96
2023-04-08T07:00:20.564Z,96
2023-04-08T07:00:53.561Z,96
2023-04-08T07:01:24.470Z,96
2023-04-08T07:01:57.423Z,96
2023-04-08T07:02:28.379Z,96
2023-04-08T07:03:01.477Z,96
2023-04-08T07:03:32.487Z,96
2023-04-08T07:04:05.253Z,96
2023-04-08T07:04:36.121Z,96
2023-04-08T07:05:10.048Z,96
2023-04-08T07:05:40.187Z,96
2023-04-08T07:06:14.416Z,96
2023-04-08T07:06:44.076Z,96
2023-04-08T07:07:17.169Z,96
2023-04-08T07:07:48.098Z,96
2023-04-08T07:08:21.310Z,96
2023-04-08T07:08:52.332Z,96
2023-04-08T07:09:25.087Z,96
2023-04-08T07:09:56.027Z,96
2023-04-08T07:10:29.121Z,96
2023-04-08T07:10:59.892Z,96
2023-04-08T07:11:32.668Z,96
2023-04-08T07:12:03.873Z,96
2023-04-08T07:12:36.702Z,96
2023-04-08T07:13:07.755Z,96
2023-04-08T07:13:40.787Z,96
2023-04-08T07:14:11.836Z,96
2023-04-08T07:14:44.951Z,96
2023-04-08T07:15:15.775Z,96
2023-04-08T07:15:48.779Z,96
2023-04-08T07:16:19.859Z,96
2023-04-08T07:16:53.574Z,96
2023-04-08T07:17:23.794Z,96
2023-04-08T07:17:56.745Z,96
2023-04-08T07:18:27.614Z,96
2023-04-08T07:19:00.761Z,96
2023-04-08T07:19:31.867Z,96
2023-04-08T07:20:04.385Z,96
2023-04-08T07:20:35.522Z,96
2023-04-08T07:21:08.434Z,96
2023-04-08T07:21:39.581Z,96
2023-04-08T07:22:12.297Z,96
2023-04-08T07:22:43.402Z,96
2023-04-08T07:23:16.354Z,96
2023-04-08T07:23:47.494Z,96
2023-04-08T07:24:23.408Z,96
2023-04-08T07:24:51.411Z,96
2023-04-08T07:25:24.605Z,96
2023-04-08T07:25:55.444Z,96
2023-04-08T07:26:28.052Z,96
2023-04-08T07:26:59.244Z,96
2023-04-08T07:27:32.168Z,96
2023-04-08T07:28:03.306Z,96
2023-04-08T07:28:36.518Z,96
2023-04-08T07:29:07.185Z,96
2023-04-08T07:29:39.986Z,96
2023-04-08T07:30:11.443Z,96
2023-04-08T07:30:43.978Z,96
2023-04-08T07:31:15.100Z,96
2023-04-08T07:31:47.990Z,96
2023-04-08T07:32:19.161Z,96
2023-04-08T07:32:51.838Z,96
2023-04-08T07:33:23.022Z,96
2023-04-08T07:33:55.952Z,96
2023-04-08T07:34:27.037Z,96
2023-04-08T07:34:59.999Z,96
2023-04-08T07:35:31.102Z,96
2023-04-08T07:36:03.861Z,96